sensor_id;sensor_type;location;lat;lon;timestamp;pressure;altitude;pressure_sealevel;temperature;humidity
33795;BME280;51430;52.242;21.118;2022-11-20T00:01:33;100256.88;;;-4.46;82.74
33795;BME280;51430;52.242;21.118;2022-11-20T00:04:02;100258.74;;;-4.56;83.10
33795;BME280;51430;52.242;21.118;2022-11-20T00:06:30;100266.00;;;-4.52;83.25
33795;BME280;51430;52.242;21.118;2022-11-20T00:08:59;100269.79;;;-4.55;83.28
33795;BME280;51430;52.242;21.118;2022-11-20T00:11:31;100266.14;;;-4.61;83.85
33795;BME280;51430;52.242;21.118;2022-11-20T00:14:00;100262.16;;;-4.57;83.86
33795;BME280;51430;52.242;21.118;2022-11-20T00:16:31;100258.54;;;-4.65;83.99
33795;BME280;51430;52.242;21.118;2022-11-20T00:19:00;100263.92;;;-4.71;84.42
33795;BME280;51430;52.242;21.118;2022-11-20T00:21:29;100273.14;;;-4.74;84.37
33795;BME280;51430;52.242;21.118;2022-11-20T00:23:58;100269.13;;;-4.78;84.77
33795;BME280;51430;52.242;21.118;2022-11-20T00:26:27;100264.45;;;-4.73;84.72
33795;BME280;51430;52.242;21.118;2022-11-20T00:28:58;100258.47;;;-4.70;84.59
33795;BME280;51430;52.242;21.118;2022-11-20T00:31:28;100258.72;;;-4.76;84.81
33795;BME280;51430;52.242;21.118;2022-11-20T00:33:56;100259.39;;;-4.75;84.89
33795;BME280;51430;52.242;21.118;2022-11-20T00:36:27;100259.36;;;-4.73;84.84
33795;BME280;51430;52.242;21.118;2022-11-20T00:38:57;100264.48;;;-4.74;84.76
33795;BME280;51430;52.242;21.118;2022-11-20T00:41:27;100264.91;;;-4.80;85.47
33795;BME280;51430;52.242;21.118;2022-11-20T00:43:56;100254.67;;;-4.67;85.03
33795;BME280;51430;52.242;21.118;2022-11-20T00:46:26;100255.25;;;-4.71;84.92
33795;BME280;51430;52.242;21.118;2022-11-20T00:48:55;100255.45;;;-4.73;85.38
33795;BME280;51430;52.242;21.118;2022-11-20T00:51:25;100253.64;;;-4.66;85.26
33795;BME280;51430;52.242;21.118;2022-11-20T00:53:58;100252.92;;;-4.53;85.38
33795;BME280;51430;52.242;21.118;2022-11-20T00:56:28;100257.05;;;-4.56;85.19
33795;BME280;51430;52.242;21.118;2022-11-20T00:58:59;100254.45;;;-4.53;85.21
33795;BME280;51430;52.242;21.118;2022-11-20T01:01:28;100252.05;;;-4.52;85.21
33795;BME280;51430;52.242;21.118;2022-11-20T01:03:59;100247.73;;;-4.48;85.01
33795;BME280;51430;52.242;21.118;2022-11-20T01:06:31;100245.61;;;-4.43;85.08
33795;BME280;51430;52.242;21.118;2022-11-20T01:09:12;100244.41;;;-4.44;84.94
33795;BME280;51430;52.242;21.118;2022-11-20T01:12:03;100236.40;;;-4.52;85.40
33795;BME280;51430;52.242;21.118;2022-11-20T01:14:31;100234.16;;;-4.50;85.91
33795;BME280;51430;52.242;21.118;2022-11-20T01:16:59;100233.02;;;-4.43;86.02
33795;BME280;51430;52.242;21.118;2022-11-20T01:19:27;100228.50;;;-4.38;86.06
33795;BME280;51430;52.242;21.118;2022-11-20T01:21:55;100229.77;;;-4.43;85.79
33795;BME280;51430;52.242;21.118;2022-11-20T01:24:24;100228.41;;;-4.52;86.23
33795;BME280;51430;52.242;21.118;2022-11-20T01:26:53;100225.32;;;-4.60;86.73
33795;BME280;51430;52.242;21.118;2022-11-20T01:29:28;100226.15;;;-4.59;86.78
33795;BME280;51430;52.242;21.118;2022-11-20T01:31:56;100220.90;;;-4.59;87.03
33795;BME280;51430;52.242;21.118;2022-11-20T01:34:24;100218.73;;;-4.53;86.80
33795;BME280;51430;52.242;21.118;2022-11-20T01:36:53;100215.64;;;-4.61;86.88
33795;BME280;51430;52.242;21.118;2022-11-20T01:39:23;100211.46;;;-4.65;87.36
33795;BME280;51430;52.242;21.118;2022-11-20T01:41:53;100211.87;;;-4.69;87.58
33795;BME280;51430;52.242;21.118;2022-11-20T01:45:00;100210.15;;;-4.68;87.67
33795;BME280;51430;52.242;21.118;2022-11-20T01:47:32;100213.12;;;-4.72;87.99
33795;BME280;51430;52.242;21.118;2022-11-20T01:50:22;100211.01;;;-4.68;87.86
33795;BME280;51430;52.242;21.118;2022-11-20T01:53:12;100211.66;;;-4.58;87.97
33795;BME280;51430;52.242;21.118;2022-11-20T01:55:49;100207.09;;;-4.58;87.77
33795;BME280;51430;52.242;21.118;2022-11-20T01:58:21;100203.35;;;-4.58;87.87
33795;BME280;51430;52.242;21.118;2022-11-20T02:00:50;100202.35;;;-4.49;87.68
33795;BME280;51430;52.242;21.118;2022-11-20T02:03:20;100201.92;;;-4.45;87.56
33795;BME280;51430;52.242;21.118;2022-11-20T02:06:07;100203.73;;;-4.42;87.58
33795;BME280;51430;52.242;21.118;2022-11-20T02:08:38;100202.86;;;-4.40;87.31
33795;BME280;51430;52.242;21.118;2022-11-20T02:11:07;100199.67;;;-4.33;87.30
33795;BME280;51430;52.242;21.118;2022-11-20T02:13:35;100202.66;;;-4.29;87.09
33795;BME280;51430;52.242;21.118;2022-11-20T02:18:53;100206.05;;;-4.29;87.10
33795;BME280;51430;52.242;21.118;2022-11-20T02:22:02;100207.08;;;-4.29;86.88
33795;BME280;51430;52.242;21.118;2022-11-20T02:24:33;100209.92;;;-4.36;87.25
33795;BME280;51430;52.242;21.118;2022-11-20T02:27:09;100210.86;;;-4.40;87.39
33795;BME280;51430;52.242;21.118;2022-11-20T02:29:51;100213.40;;;-4.40;87.30
33795;BME280;51430;52.242;21.118;2022-11-20T02:32:28;100208.49;;;-4.42;87.39
33795;BME280;51430;52.242;21.118;2022-11-20T02:34:57;100207.23;;;-4.37;87.10
33795;BME280;51430;52.242;21.118;2022-11-20T02:37:37;100208.38;;;-4.44;87.37
33795;BME280;51430;52.242;21.118;2022-11-20T02:40:07;100211.73;;;-4.42;87.44
33795;BME280;51430;52.242;21.118;2022-11-20T02:42:36;100213.86;;;-4.38;87.54
33795;BME280;51430;52.242;21.118;2022-11-20T02:45:05;100213.31;;;-4.35;87.51
33795;BME280;51430;52.242;21.118;2022-11-20T02:47:34;100208.52;;;-4.33;87.34
33795;BME280;51430;52.242;21.118;2022-11-20T02:50:03;100212.60;;;-4.43;87.46
33795;BME280;51430;52.242;21.118;2022-11-20T02:52:32;100217.02;;;-4.43;87.81
33795;BME280;51430;52.242;21.118;2022-11-20T02:55:00;100222.71;;;-4.37;87.78
33795;BME280;51430;52.242;21.118;2022-11-20T02:57:28;100224.92;;;-4.47;87.98
33795;BME280;51430;52.242;21.118;2022-11-20T02:59:56;100219.67;;;-4.49;88.29
33795;BME280;51430;52.242;21.118;2022-11-20T03:02:24;100217.28;;;-4.48;88.50
33795;BME280;51430;52.242;21.118;2022-11-20T03:04:52;100214.73;;;-4.48;88.53
33795;BME280;51430;52.242;21.118;2022-11-20T03:07:20;100218.73;;;-4.52;88.85
33795;BME280;51430;52.242;21.118;2022-11-20T03:09:49;100217.27;;;-4.47;88.66
33795;BME280;51430;52.242;21.118;2022-11-20T03:12:17;100218.52;;;-4.50;88.77
33795;BME280;51430;52.242;21.118;2022-11-20T03:14:45;100217.36;;;-4.51;88.88
33795;BME280;51430;52.242;21.118;2022-11-20T03:17:20;100211.95;;;-4.53;89.08
33795;BME280;51430;52.242;21.118;2022-11-20T03:19:48;100210.12;;;-4.57;89.19
33795;BME280;51430;52.242;21.118;2022-11-20T03:22:16;100208.13;;;-4.59;89.64
33795;BME280;51430;52.242;21.118;2022-11-20T03:24:44;100201.33;;;-4.59;89.68
33795;BME280;51430;52.242;21.118;2022-11-20T03:27:12;100202.05;;;-4.62;89.83
33795;BME280;51430;52.242;21.118;2022-11-20T03:29:40;100205.55;;;-4.67;90.24
33795;BME280;51430;52.242;21.118;2022-11-20T03:32:08;100201.77;;;-4.65;90.14
33795;BME280;51430;52.242;21.118;2022-11-20T03:34:37;100202.77;;;-4.65;90.10
33795;BME280;51430;52.242;21.118;2022-11-20T03:37:06;100200.20;;;-4.62;90.17
33795;BME280;51430;52.242;21.118;2022-11-20T03:39:34;100200.35;;;-4.71;90.39
33795;BME280;51430;52.242;21.118;2022-11-20T03:42:02;100201.34;;;-4.69;90.38
33795;BME280;51430;52.242;21.118;2022-11-20T03:44:50;100198.10;;;-4.79;90.74
33795;BME280;51430;52.242;21.118;2022-11-20T03:47:19;100195.25;;;-4.82;91.31
33795;BME280;51430;52.242;21.118;2022-11-20T03:49:47;100190.94;;;-4.78;91.06
33795;BME280;51430;52.242;21.118;2022-11-20T03:52:15;100187.25;;;-4.82;91.30
33795;BME280;51430;52.242;21.118;2022-11-20T03:54:43;100184.98;;;-4.77;91.48
33795;BME280;51430;52.242;21.118;2022-11-20T03:57:11;100188.15;;;-4.83;91.54
33795;BME280;51430;52.242;21.118;2022-11-20T03:59:39;100188.61;;;-4.82;91.76
33795;BME280;51430;52.242;21.118;2022-11-20T04:02:07;100186.23;;;-4.81;91.90
33795;BME280;51430;52.242;21.118;2022-11-20T04:04:36;100185.40;;;-4.82;91.87
33795;BME280;51430;52.242;21.118;2022-11-20T04:07:04;100185.91;;;-4.82;91.73
33795;BME280;51430;52.242;21.118;2022-11-20T04:09:32;100183.11;;;-4.88;92.16
33795;BME280;51430;52.242;21.118;2022-11-20T04:12:00;100185.20;;;-4.81;92.10
33795;BME280;51430;52.242;21.118;2022-11-20T04:14:29;100189.27;;;-4.79;91.99
33795;BME280;51430;52.242;21.118;2022-11-20T04:16:57;100182.34;;;-4.82;91.72
33795;BME280;51430;52.242;21.118;2022-11-20T04:19:25;100184.91;;;-4.83;91.57
33795;BME280;51430;52.242;21.118;2022-11-20T04:21:53;100181.15;;;-4.83;91.69
33795;BME280;51430;52.242;21.118;2022-11-20T04:24:21;100182.44;;;-4.88;91.34
33795;BME280;51430;52.242;21.118;2022-11-20T04:26:49;100178.20;;;-4.89;91.39
33795;BME280;51430;52.242;21.118;2022-11-20T04:29:17;100178.23;;;-4.91;91.29
33795;BME280;51430;52.242;21.118;2022-11-20T04:31:46;100175.55;;;-4.93;91.30
33795;BME280;51430;52.242;21.118;2022-11-20T04:34:14;100170.80;;;-4.94;91.18
33795;BME280;51430;52.242;21.118;2022-11-20T04:36:42;100167.35;;;-4.91;91.15
33795;BME280;51430;52.242;21.118;2022-11-20T04:39:12;100164.42;;;-4.99;91.01
33795;BME280;51430;52.242;21.118;2022-11-20T04:41:42;100168.96;;;-4.96;90.94
33795;BME280;51430;52.242;21.118;2022-11-20T04:44:10;100166.55;;;-4.94;90.83
33795;BME280;51430;52.242;21.118;2022-11-20T04:46:42;100164.81;;;-4.91;90.73
33795;BME280;51430;52.242;21.118;2022-11-20T04:49:11;100164.27;;;-5.00;90.42
33795;BME280;51430;52.242;21.118;2022-11-20T04:51:39;100161.56;;;-5.00;90.64
33795;BME280;51430;52.242;21.118;2022-11-20T04:54:08;100160.95;;;-5.04;90.58
33795;BME280;51430;52.242;21.118;2022-11-20T04:56:38;100161.17;;;-4.98;90.44
33795;BME280;51430;52.242;21.118;2022-11-20T04:59:06;100158.41;;;-5.06;90.15
33795;BME280;51430;52.242;21.118;2022-11-20T05:01:34;100151.44;;;-5.05;90.51
33795;BME280;51430;52.242;21.118;2022-11-20T05:04:03;100149.59;;;-5.06;90.24
33795;BME280;51430;52.242;21.118;2022-11-20T05:06:31;100148.75;;;-5.07;90.01
33795;BME280;51430;52.242;21.118;2022-11-20T05:09:00;100147.46;;;-5.12;90.27
33795;BME280;51430;52.242;21.118;2022-11-20T05:11:28;100148.89;;;-5.06;90.35
33795;BME280;51430;52.242;21.118;2022-11-20T05:13:59;100149.90;;;-5.05;89.94
33795;BME280;51430;52.242;21.118;2022-11-20T05:16:28;100147.66;;;-5.13;89.78
33795;BME280;51430;52.242;21.118;2022-11-20T05:18:56;100145.74;;;-5.21;90.26
33795;BME280;51430;52.242;21.118;2022-11-20T05:21:24;100147.85;;;-5.25;90.30
33795;BME280;51430;52.242;21.118;2022-11-20T05:23:52;100152.45;;;-5.26;90.39
33795;BME280;51430;52.242;21.118;2022-11-20T05:26:21;100152.55;;;-5.20;90.22
33795;BME280;51430;52.242;21.118;2022-11-20T05:28:50;100155.75;;;-5.19;90.09
33795;BME280;51430;52.242;21.118;2022-11-20T05:31:21;100153.19;;;-5.18;90.07
33795;BME280;51430;52.242;21.118;2022-11-20T05:33:56;100149.40;;;-5.26;90.00
33795;BME280;51430;52.242;21.118;2022-11-20T05:36:25;100146.61;;;-5.22;90.04
33795;BME280;51430;52.242;21.118;2022-11-20T05:38:53;100141.64;;;-5.30;90.05
33795;BME280;51430;52.242;21.118;2022-11-20T05:41:29;100138.59;;;-5.30;90.29
33795;BME280;51430;52.242;21.118;2022-11-20T05:43:57;100135.56;;;-5.32;90.22
33795;BME280;51430;52.242;21.118;2022-11-20T05:46:27;100140.52;;;-5.33;90.33
33795;BME280;51430;52.242;21.118;2022-11-20T05:48:57;100139.20;;;-5.36;90.51
33795;BME280;51430;52.242;21.118;2022-11-20T05:51:26;100138.77;;;-5.30;90.17
33795;BME280;51430;52.242;21.118;2022-11-20T05:53:57;100136.88;;;-5.29;90.03
33795;BME280;51430;52.242;21.118;2022-11-20T05:56:26;100136.89;;;-5.30;90.01
33795;BME280;51430;52.242;21.118;2022-11-20T05:58:55;100139.38;;;-5.26;89.99
33795;BME280;51430;52.242;21.118;2022-11-20T06:01:25;100139.02;;;-5.25;89.72
33795;BME280;51430;52.242;21.118;2022-11-20T06:03:54;100141.54;;;-5.23;89.64
33795;BME280;51430;52.242;21.118;2022-11-20T06:06:22;100136.98;;;-5.25;89.61
33795;BME280;51430;52.242;21.118;2022-11-20T06:08:51;100138.22;;;-5.27;89.78
33795;BME280;51430;52.242;21.118;2022-11-20T06:11:19;100132.58;;;-5.26;89.72
33795;BME280;51430;52.242;21.118;2022-11-20T06:13:47;100131.53;;;-5.23;89.70
33795;BME280;51430;52.242;21.118;2022-11-20T06:16:18;100130.88;;;-5.25;89.69
33795;BME280;51430;52.242;21.118;2022-11-20T06:18:51;100126.54;;;-5.30;89.92
33795;BME280;51430;52.242;21.118;2022-11-20T06:21:21;100123.36;;;-5.33;89.89
33795;BME280;51430;52.242;21.118;2022-11-20T06:23:50;100122.05;;;-5.37;89.97
33795;BME280;51430;52.242;21.118;2022-11-20T06:26:20;100120.66;;;-5.46;90.44
33795;BME280;51430;52.242;21.118;2022-11-20T06:28:50;100122.54;;;-5.35;90.20
33795;BME280;51430;52.242;21.118;2022-11-20T06:31:21;100123.75;;;-5.26;90.14
33795;BME280;51430;52.242;21.118;2022-11-20T06:33:50;100124.98;;;-5.18;89.51
33795;BME280;51430;52.242;21.118;2022-11-20T06:36:21;100127.63;;;-5.13;89.39
33795;BME280;51430;52.242;21.118;2022-11-20T06:38:50;100125.98;;;-5.07;89.16
33795;BME280;51430;52.242;21.118;2022-11-20T06:41:20;100125.73;;;-5.01;88.85
33795;BME280;51430;52.242;21.118;2022-11-20T06:43:49;100126.95;;;-5.13;88.76
33795;BME280;51430;52.242;21.118;2022-11-20T06:46:19;100128.84;;;-5.05;88.41
33795;BME280;51430;52.242;21.118;2022-11-20T06:48:48;100125.92;;;-5.03;88.18
33795;BME280;51430;52.242;21.118;2022-11-20T06:51:17;100129.86;;;-4.94;88.20
33795;BME280;51430;52.242;21.118;2022-11-20T06:53:45;100127.10;;;-4.82;87.84
33795;BME280;51430;52.242;21.118;2022-11-20T06:56:13;100130.38;;;-4.75;87.45
33795;BME280;51430;52.242;21.118;2022-11-20T06:58:42;100126.95;;;-4.74;86.94
33795;BME280;51430;52.242;21.118;2022-11-20T07:01:12;100124.79;;;-4.58;86.67
33795;BME280;51430;52.242;21.118;2022-11-20T07:03:41;100116.20;;;-4.37;85.91
33795;BME280;51430;52.242;21.118;2022-11-20T07:06:10;100117.88;;;-4.09;85.23
33795;BME280;51430;52.242;21.118;2022-11-20T07:08:38;100116.65;;;-3.91;84.12
33795;BME280;51430;52.242;21.118;2022-11-20T07:11:07;100112.65;;;-3.87;83.77
33795;BME280;51430;52.242;21.118;2022-11-20T07:13:36;100114.21;;;-3.65;83.38
33795;BME280;51430;52.242;21.118;2022-11-20T07:16:06;100115.32;;;-3.69;82.40
33795;BME280;51430;52.242;21.118;2022-11-20T07:18:35;100117.25;;;-3.49;82.06
33795;BME280;51430;52.242;21.118;2022-11-20T07:21:06;100113.66;;;-3.20;81.35
33795;BME280;51430;52.242;21.118;2022-11-20T07:23:35;100105.79;;;-3.32;80.55
33795;BME280;51430;52.242;21.118;2022-11-20T07:26:08;100104.50;;;-3.43;80.90
33795;BME280;51430;52.242;21.118;2022-11-20T07:28:45;100105.42;;;-3.17;80.80
33795;BME280;51430;52.242;21.118;2022-11-20T07:31:13;100108.38;;;-2.86;79.99
33795;BME280;51430;52.242;21.118;2022-11-20T07:33:46;100108.44;;;-2.68;78.99
33795;BME280;51430;52.242;21.118;2022-11-20T07:36:14;100107.40;;;-2.81;78.65
33795;BME280;51430;52.242;21.118;2022-11-20T07:38:43;100106.68;;;-2.66;79.12
33795;BME280;51430;52.242;21.118;2022-11-20T07:41:11;100101.72;;;-2.28;78.17
33795;BME280;51430;52.242;21.118;2022-11-20T07:43:39;100099.55;;;-2.06;77.12
33795;BME280;51430;52.242;21.118;2022-11-20T07:46:08;100098.28;;;-1.75;76.50
33795;BME280;51430;52.242;21.118;2022-11-20T07:48:37;100100.30;;;-1.52;75.55
33795;BME280;51430;52.242;21.118;2022-11-20T07:51:05;100101.36;;;-1.64;74.81
33795;BME280;51430;52.242;21.118;2022-11-20T07:53:33;100102.92;;;-1.99;75.30
33795;BME280;51430;52.242;21.118;2022-11-20T07:56:02;100101.07;;;-2.18;76.62
33795;BME280;51430;52.242;21.118;2022-11-20T07:58:32;100095.14;;;-2.01;76.58
33795;BME280;51430;52.242;21.118;2022-11-20T08:01:07;100093.56;;;-1.65;76.03
33795;BME280;51430;52.242;21.118;2022-11-20T08:03:35;100092.90;;;-1.29;75.10
33795;BME280;51430;52.242;21.118;2022-11-20T08:06:06;100093.94;;;-0.88;73.79
33795;BME280;51430;52.242;21.118;2022-11-20T08:08:34;100094.14;;;-0.93;73.35
33795;BME280;51430;52.242;21.118;2022-11-20T08:11:09;100097.06;;;-0.89;72.99
33795;BME280;51430;52.242;21.118;2022-11-20T08:13:56;100095.97;;;-0.87;73.37
33795;BME280;51430;52.242;21.118;2022-11-20T08:16:41;100094.67;;;-0.79;73.33
33795;BME280;51430;52.242;21.118;2022-11-20T08:19:16;100094.10;;;-0.63;72.76
33795;BME280;51430;52.242;21.118;2022-11-20T08:21:45;100095.45;;;-0.67;72.74
33795;BME280;51430;52.242;21.118;2022-11-20T08:24:13;100095.10;;;-0.87;73.03
33795;BME280;51430;52.242;21.118;2022-11-20T08:26:42;100093.61;;;-0.68;73.02
33795;BME280;51430;52.242;21.118;2022-11-20T08:29:10;100093.23;;;-0.29;72.41
33795;BME280;51430;52.242;21.118;2022-11-20T08:31:38;100097.13;;;0.10;71.07
33795;BME280;51430;52.242;21.118;2022-11-20T08:34:26;100086.98;;;0.25;70.39
33795;BME280;51430;52.242;21.118;2022-11-20T08:36:54;100090.58;;;0.38;70.26
33795;BME280;51430;52.242;21.118;2022-11-20T08:39:23;100088.45;;;0.78;69.75
33795;BME280;51430;52.242;21.118;2022-11-20T08:41:51;100086.44;;;1.46;68.37
33795;BME280;51430;52.242;21.118;2022-11-20T08:44:20;100084.38;;;1.89;66.69
33795;BME280;51430;52.242;21.118;2022-11-20T08:46:48;100086.91;;;1.93;65.86
33795;BME280;51430;52.242;21.118;2022-11-20T08:49:16;100079.20;;;2.27;64.88
33795;BME280;51430;52.242;21.118;2022-11-20T08:51:46;100075.13;;;2.25;65.00
33795;BME280;51430;52.242;21.118;2022-11-20T08:54:16;100077.59;;;2.82;64.08
33795;BME280;51430;52.242;21.118;2022-11-20T08:56:48;100072.70;;;2.40;63.65
33795;BME280;51430;52.242;21.118;2022-11-20T08:59:16;100073.78;;;1.95;65.59
33795;BME280;51430;52.242;21.118;2022-11-20T09:02:07;100069.46;;;1.57;67.11
33795;BME280;51430;52.242;21.118;2022-11-20T09:04:36;100068.95;;;1.92;66.47
33795;BME280;51430;52.242;21.118;2022-11-20T09:07:06;100066.64;;;1.93;66.16
33795;BME280;51430;52.242;21.118;2022-11-20T09:09:34;100061.75;;;2.61;64.54
33795;BME280;51430;52.242;21.118;2022-11-20T09:12:02;100053.88;;;2.38;64.18
33795;BME280;51430;52.242;21.118;2022-11-20T09:14:31;100054.02;;;2.50;64.64
33795;BME280;51430;52.242;21.118;2022-11-20T09:17:02;100052.65;;;2.98;62.95
33795;BME280;51430;52.242;21.118;2022-11-20T09:19:30;100054.30;;;3.50;61.98
33795;BME280;51430;52.242;21.118;2022-11-20T09:22:03;100057.28;;;3.30;61.94
33795;BME280;51430;52.242;21.118;2022-11-20T09:24:31;100053.23;;;3.48;61.63
33795;BME280;51430;52.242;21.118;2022-11-20T09:27:04;100047.30;;;3.26;61.30
33795;BME280;51430;52.242;21.118;2022-11-20T09:29:33;100044.47;;;3.03;62.36
33795;BME280;51430;52.242;21.118;2022-11-20T09:32:05;100044.05;;;4.03;60.57
33795;BME280;51430;52.242;21.118;2022-11-20T09:34:34;100045.73;;;4.51;55.93
33795;BME280;51430;52.242;21.118;2022-11-20T09:37:02;100044.06;;;4.00;57.12
33795;BME280;51430;52.242;21.118;2022-11-20T09:39:34;100034.23;;;3.39;58.76
33795;BME280;51430;52.242;21.118;2022-11-20T09:48:36;100021.01;;;5.45;54.96
33795;BME280;51430;52.242;21.118;2022-11-20T09:51:44;100026.60;;;5.15;54.39
33795;BME280;51430;52.242;21.118;2022-11-20T09:54:22;100023.42;;;5.34;54.35
33795;BME280;51430;52.242;21.118;2022-11-20T09:57:04;100028.02;;;5.66;53.40
33795;BME280;51430;52.242;21.118;2022-11-20T09:59:47;100025.02;;;5.98;52.94
33795;BME280;51430;52.242;21.118;2022-11-20T10:07:29;100034.06;;;5.27;53.98
33795;BME280;51430;52.242;21.118;2022-11-20T10:10:00;100028.33;;;5.33;54.43
33795;BME280;51430;52.242;21.118;2022-11-20T10:26:45;100012.77;;;7.82;48.87
33795;BME280;51430;52.242;21.118;2022-11-20T10:29:32;100012.07;;;8.08;48.44
33795;BME280;51430;52.242;21.118;2022-11-20T10:32:09;100010.33;;;8.11;47.65
33795;BME280;51430;52.242;21.118;2022-11-20T10:34:59;100011.59;;;8.28;47.50
33795;BME280;51430;52.242;21.118;2022-11-20T10:37:31;100008.91;;;8.34;46.96
33795;BME280;51430;52.242;21.118;2022-11-20T10:42:46;99998.27;;;8.85;45.69
33795;BME280;51430;52.242;21.118;2022-11-20T10:48:16;100003.17;;;7.92;47.85
33795;BME280;51430;52.242;21.118;2022-11-20T10:51:21;99993.27;;;7.30;49.19
33795;BME280;51430;52.242;21.118;2022-11-20T10:54:22;99990.85;;;6.97;50.66
33795;BME280;51430;52.242;21.118;2022-11-20T10:57:06;99994.45;;;8.02;49.02
33795;BME280;51430;52.242;21.118;2022-11-20T10:59:46;99997.09;;;8.94;46.14
33795;BME280;51430;52.242;21.118;2022-11-20T11:02:39;100000.84;;;9.16;45.69
33795;BME280;51430;52.242;21.118;2022-11-20T11:07:50;99995.82;;;9.51;44.24
33795;BME280;51430;52.242;21.118;2022-11-20T11:13:25;99990.94;;;9.18;45.02
33795;BME280;51430;52.242;21.118;2022-11-20T11:16:52;99984.98;;;8.96;45.09
33795;BME280;51430;52.242;21.118;2022-11-20T11:19:21;99988.87;;;8.86;45.66
33795;BME280;51430;52.242;21.118;2022-11-20T11:21:53;99987.14;;;8.87;45.53
33795;BME280;51430;52.242;21.118;2022-11-20T11:24:27;99987.30;;;8.08;47.10
33795;BME280;51430;52.242;21.118;2022-11-20T11:27:14;99986.77;;;8.16;47.11
33795;BME280;51430;52.242;21.118;2022-11-20T11:30:02;99982.40;;;8.95;45.85
33795;BME280;51430;52.242;21.118;2022-11-20T11:32:30;99981.10;;;9.68;44.12
33795;BME280;51430;52.242;21.118;2022-11-20T11:35:20;99989.81;;;10.61;42.59
33795;BME280;51430;52.242;21.118;2022-11-20T11:37:49;99992.34;;;10.79;41.79
33795;BME280;51430;52.242;21.118;2022-11-20T11:40:19;99991.70;;;10.25;42.36
33795;BME280;51430;52.242;21.118;2022-11-20T11:42:56;99990.45;;;9.37;43.81
33795;BME280;51430;52.242;21.118;2022-11-20T11:45:28;99985.02;;;9.14;44.69
33795;BME280;51430;52.242;21.118;2022-11-20T11:47:58;99985.03;;;8.72;45.55
33795;BME280;51430;52.242;21.118;2022-11-20T11:50:29;99982.14;;;8.90;45.55
33795;BME280;51430;52.242;21.118;2022-11-20T11:53:12;99985.40;;;8.72;46.03
33795;BME280;51430;52.242;21.118;2022-11-20T11:55:56;99979.89;;;9.10;45.53
33795;BME280;51430;52.242;21.118;2022-11-20T11:58:48;99973.27;;;9.46;44.96
33795;BME280;51430;52.242;21.118;2022-11-20T12:13:20;99957.00;;;10.59;42.83
33795;BME280;51430;52.242;21.118;2022-11-20T12:15:52;99953.90;;;10.79;42.69
33795;BME280;51430;52.242;21.118;2022-11-20T12:18:22;99949.56;;;11.61;40.73
33795;BME280;51430;52.242;21.118;2022-11-20T12:23:35;99944.61;;;10.68;42.17
33795;BME280;51430;52.242;21.118;2022-11-20T12:32:26;99933.14;;;8.48;45.93
33795;BME280;51430;52.242;21.118;2022-11-20T12:35:21;99934.77;;;8.12;47.36
33795;BME280;51430;52.242;21.118;2022-11-20T12:44:02;99920.75;;;8.85;45.67
33795;BME280;51430;52.242;21.118;2022-11-20T12:50:37;99919.45;;;9.55;44.49
33795;BME280;51430;52.242;21.118;2022-11-20T12:53:38;99917.31;;;8.87;45.22
33795;BME280;51430;52.242;21.118;2022-11-20T12:56:27;99915.23;;;8.64;46.43
33795;BME280;51430;52.242;21.118;2022-11-20T12:59:54;99907.32;;;9.24;45.04
33795;BME280;51430;52.242;21.118;2022-11-20T13:07:57;99904.50;;;8.43;45.89
33795;BME280;51430;52.242;21.118;2022-11-20T13:16:29;99889.36;;;5.00;55.83
33795;BME280;51430;52.242;21.118;2022-11-20T13:19:04;99885.52;;;4.66;57.08
33795;BME280;51430;52.242;21.118;2022-11-20T13:21:47;99884.15;;;4.25;58.56
33795;BME280;51430;52.242;21.118;2022-11-20T13:24:26;99882.40;;;3.80;60.02
33795;BME280;51430;52.242;21.118;2022-11-20T13:29:44;99874.36;;;3.73;61.25
33795;BME280;51430;52.242;21.118;2022-11-20T13:32:18;99873.48;;;3.97;60.77
33795;BME280;51430;52.242;21.118;2022-11-20T13:35:08;99869.94;;;4.08;60.49
33795;BME280;51430;52.242;21.118;2022-11-20T13:37:37;99859.58;;;4.67;59.05
33795;BME280;51430;52.242;21.118;2022-11-20T13:42:54;99872.75;;;6.71;52.72
33795;BME280;51430;52.242;21.118;2022-11-20T13:45:28;99870.23;;;6.37;53.33
33795;BME280;51430;52.242;21.118;2022-11-20T13:48:02;99869.98;;;6.01;54.17
33795;BME280;51430;52.242;21.118;2022-11-20T13:53:35;99864.12;;;5.30;56.84
33795;BME280;51430;52.242;21.118;2022-11-20T14:01:45;99850.41;;;3.66;61.27
33795;BME280;51430;52.242;21.118;2022-11-20T14:04:17;99851.86;;;2.86;63.76
33795;BME280;51430;52.242;21.118;2022-11-20T14:06:48;99847.54;;;2.07;66.97
33795;BME280;51430;52.242;21.118;2022-11-20T14:09:27;99847.14;;;1.80;68.17
33795;BME280;51430;52.242;21.118;2022-11-20T14:11:56;99846.78;;;1.30;70.49
33795;BME280;51430;52.242;21.118;2022-11-20T14:14:26;99847.45;;;1.16;71.10
33795;BME280;51430;52.242;21.118;2022-11-20T14:17:19;99845.27;;;1.11;71.59
33795;BME280;51430;52.242;21.118;2022-11-20T14:19:50;99842.04;;;0.95;72.27
33795;BME280;51430;52.242;21.118;2022-11-20T14:22:24;99835.80;;;0.73;73.48
33795;BME280;51430;52.242;21.118;2022-11-20T14:25:04;99831.70;;;0.62;74.24
33795;BME280;51430;52.242;21.118;2022-11-20T14:27:35;99834.89;;;0.59;74.55
33795;BME280;51430;52.242;21.118;2022-11-20T14:30:11;99835.27;;;0.52;75.19
33795;BME280;51430;52.242;21.118;2022-11-20T14:33:18;99834.06;;;0.36;75.86
33795;BME280;51430;52.242;21.118;2022-11-20T14:35:53;99828.34;;;0.45;75.56
33795;BME280;51430;52.242;21.118;2022-11-20T14:38:42;99825.98;;;0.40;75.80
33795;BME280;51430;52.242;21.118;2022-11-20T14:41:22;99822.95;;;0.35;76.31
33795;BME280;51430;52.242;21.118;2022-11-20T14:43:59;99819.36;;;0.26;76.51
33795;BME280;51430;52.242;21.118;2022-11-20T14:46:31;99819.65;;;0.28;76.61
33795;BME280;51430;52.242;21.118;2022-11-20T14:49:01;99818.61;;;0.36;76.24
33795;BME280;51430;52.242;21.118;2022-11-20T14:51:38;99815.80;;;0.26;76.77